Franklin, Texas
Current Conditions -  °F | °C
As of 2:15 AM on Thursday 27 Nov 2014 (Local Time) from KLHB Reporting Station
Clear Clear  
Wind Chill: 39°   Ceiling: Unl
Heat Index: 42°   Visibility: 10mi
Dew Point: 36°   Wind: 5mph
Humidity: 82%   Direction: 300°WNW
Pressure: 30.4"   Gusts: NA
Location:  31.03°N, 96.49°W
Report Text: KLHB 270815Z AUTO 30004KT 10SM CLR 05/02 A3040 RMK AO2 T00530024
Loading
Personal Weather Stations






























Interactive Weather Map New forecast layout! Learn more

10-Day Weather Forecast

Advertisements
Track Severe Weather on mobile